createdAt,value
2017-11-17T04:39:07.480Z,95.60
2017-11-17T04:41:39.357Z,95.60
2017-11-17T04:44:11.240Z,95.60
2017-11-17T04:46:43.116Z,95.70
2017-11-17T04:49:15.802Z,95.80
2017-11-17T04:51:48.432Z,95.50
2017-11-17T04:54:20.661Z,95.50
2017-11-17T04:56:52.540Z,95.50
2017-11-17T04:59:24.443Z,95.60
2017-11-17T05:01:56.317Z,95.50
2017-11-17T05:04:28.972Z,95.50
2017-11-17T05:07:01.808Z,95.50
2017-11-17T05:09:33.754Z,95.40
2017-11-17T05:12:06.399Z,95.50
2017-11-17T05:14:38.281Z,95.50
2017-11-17T05:17:10.928Z,95.50
2017-11-17T05:19:42.813Z,95.50
2017-11-17T05:22:15.446Z,95.70
2017-11-17T05:24:47.357Z,95.60
2017-11-17T05:27:19.991Z,95.70
2017-11-17T05:29:51.876Z,95.70
2017-11-17T05:32:23.754Z,95.70
2017-11-17T05:34:56.435Z,95.70
2017-11-17T05:37:29.079Z,95.70
2017-11-17T05:40:00.997Z,95.70
2017-11-17T05:42:32.869Z,95.70
2017-11-17T05:45:04.785Z,95.70
2017-11-17T05:47:37.429Z,95.70
2017-11-17T05:50:09.309Z,95.70
2017-11-17T05:52:41.215Z,95.90
2017-11-17T05:55:13.110Z,95.60
2017-11-17T05:57:44.986Z,95.70
2017-11-17T06:00:16.889Z,95.70
2017-11-17T06:02:48.758Z,95.60
2017-11-17T06:05:20.649Z,95.70
2017-11-17T06:07:52.520Z,95.70
2017-11-17T06:10:24.433Z,95.70
2017-11-17T06:12:56.305Z,95.70
2017-11-17T06:15:28.192Z,95.70
2017-11-17T06:18:00.065Z,95.60
2017-11-17T06:20:31.954Z,95.60
2017-11-17T06:23:04.592Z,95.60
2017-11-17T06:25:36.489Z,95.60
2017-11-17T06:28:09.122Z,95.60
2017-11-17T06:30:41.038Z,95.60
2017-11-17T06:33:13.673Z,95.60
2017-11-17T06:35:45.578Z,95.60
2017-11-17T06:38:18.223Z,95.60
2017-11-17T06:40:50.128Z,95.60
2017-11-17T06:43:22.006Z,95.60
2017-11-17T06:45:53.914Z,95.60
2017-11-17T06:48:25.781Z,95.60
2017-11-17T06:50:58.453Z,95.50
2017-11-17T06:53:30.325Z,95.50
2017-11-17T06:56:02.980Z,95.40
2017-11-17T06:58:36.462Z,95.30
2017-11-17T07:01:08.357Z,95.30
2017-11-17T07:03:40.994Z,95.10
2017-11-17T07:06:12.889Z,95.10
2017-11-17T07:08:45.081Z,95.00
2017-11-17T07:11:16.984Z,95.00
2017-11-17T07:13:48.849Z,95.00
2017-11-17T07:16:20.754Z,95.10
2017-11-17T07:18:53.385Z,95.10
2017-11-17T07:21:25.308Z,95.10
2017-11-17T07:23:57.179Z,95.10
2017-11-17T07:26:29.105Z,95.30
2017-11-17T07:29:00.966Z,95.20
2017-11-17T07:31:33.641Z,95.10
2017-11-17T07:34:06.284Z,94.90
2017-11-17T07:36:38.191Z,94.90
2017-11-17T07:39:10.827Z,94.60
2017-11-17T07:41:42.720Z,94.60
2017-11-17T07:44:15.357Z,94.70
2017-11-17T07:46:47.260Z,94.70
2017-11-17T07:49:19.897Z,94.90
2017-11-17T07:51:51.802Z,94.90
2017-11-17T07:54:24.430Z,94.70
2017-11-17T07:56:56.325Z,94.70
2017-11-17T07:59:28.964Z,94.60
2017-11-17T08:02:00.841Z,94.60
2017-11-17T08:04:32.709Z,94.50
2017-11-17T08:07:04.612Z,94.60
2017-11-17T08:09:36.484Z,94.70
2017-11-17T08:12:08.369Z,94.80
2017-11-17T08:14:40.256Z,94.80
2017-11-17T08:17:24.096Z,94.90
2017-11-17T08:19:55.969Z,94.90
2017-11-17T08:22:28.616Z,95.00
2017-11-17T08:25:00.485Z,95.00
2017-11-17T08:27:32.387Z,95.00
2017-11-17T08:30:04.253Z,94.90
2017-11-17T08:32:36.141Z,94.90
2017-11-17T08:35:08.020Z,94.80
2017-11-17T08:37:39.929Z,94.50
2017-11-17T08:40:11.807Z,94.50
2017-11-17T08:42:43.709Z,94.40
2017-11-17T08:45:15.581Z,94.20
2017-11-17T08:47:47.493Z,94.20
2017-11-17T08:50:19.366Z,94.10
2017-11-17T08:52:51.273Z,93.90
2017-11-17T08:55:23.910Z,94.20
2017-11-17T08:57:55.825Z,94.20
2017-11-17T09:00:27.701Z,94.10
2017-11-17T09:02:59.620Z,94.40
2017-11-17T09:05:31.508Z,94.20
2017-11-17T09:08:03.404Z,93.90
2017-11-17T09:10:35.273Z,94.10
2017-11-17T09:13:07.218Z,93.60
2017-11-17T09:15:39.089Z,93.70
2017-11-17T09:18:11.001Z,93.70
2017-11-17T09:20:43.635Z,93.50
2017-11-17T09:23:15.520Z,93.50
2017-11-17T09:25:47.392Z,93.20
2017-11-17T09:28:20.062Z,93.10
2017-11-17T09:30:52.702Z,93.10
2017-11-17T09:33:24.608Z,93.10
2017-11-17T09:35:57.246Z,92.50
2017-11-17T09:38:29.129Z,92.40
2017-11-17T09:41:01.007Z,92.50
2017-11-17T09:43:32.937Z,92.10
2017-11-17T09:46:04.821Z,92.30
2017-11-17T09:48:36.730Z,92.20
2017-11-17T09:51:08.599Z,92.40
2017-11-17T09:53:40.499Z,92.40
2017-11-17T09:56:12.372Z,92.40
2017-11-17T09:58:45.026Z,92.50
2017-11-17T10:01:16.893Z,92.40
2017-11-17T10:03:48.798Z,92.30
2017-11-17T10:06:20.668Z,92.50
2017-11-17T10:08:52.574Z,92.20
2017-11-17T10:11:24.495Z,92.20
2017-11-17T10:13:56.477Z,92.10
2017-11-17T10:16:28.355Z,91.80
2017-11-17T10:19:00.242Z,91.80
2017-11-17T10:21:32.883Z,91.60
2017-11-17T10:24:04.886Z,91.50
2017-11-17T10:26:37.058Z,91.50
2017-11-17T10:29:08.969Z,91.50
2017-11-17T10:31:40.842Z,91.40
2017-11-17T10:34:12.749Z,91.30
2017-11-17T10:36:44.632Z,91.00
2017-11-17T10:39:16.522Z,90.60
2017-11-17T10:41:48.392Z,90.70
2017-11-17T10:44:20.279Z,91.00
2017-11-17T10:46:52.145Z,90.60
2017-11-17T10:49:24.058Z,90.90
2017-11-17T10:51:55.930Z,91.20
2017-11-17T10:54:27.835Z,91.30
2017-11-17T10:56:59.726Z,91.50
2017-11-17T10:59:31.641Z,91.40
2017-11-17T11:02:03.522Z,91.20
2017-11-17T11:04:35.417Z,90.50
2017-11-17T11:07:08.268Z,90.70
2017-11-17T11:09:40.160Z,90.50
2017-11-17T11:12:12.064Z,90.60
2017-11-17T11:14:44.755Z,88.30
2017-11-17T11:17:16.625Z,88.30
2017-11-17T11:19:48.529Z,88.90
2017-11-17T11:22:20.413Z,89.00
2017-11-17T11:24:53.093Z,89.30
2017-11-17T11:27:25.729Z,87.10
2017-11-17T11:29:57.630Z,87.00
2017-11-17T11:32:30.269Z,87.00
2017-11-17T11:35:02.168Z,87.00
2017-11-17T11:37:34.804Z,86.90
2017-11-17T11:40:07.032Z,86.90
2017-11-17T11:42:38.913Z,86.70
2017-11-17T11:45:10.797Z,87.10
2017-11-17T11:47:42.677Z,87.70
2017-11-17T11:50:14.602Z,86.20
2017-11-17T11:52:46.497Z,84.10
2017-11-17T11:55:18.404Z,83.30
2017-11-17T11:57:50.274Z,82.80
2017-11-17T12:00:22.189Z,82.70
2017-11-17T12:02:54.833Z,81.70
2017-11-17T12:05:26.733Z,82.20
2017-11-17T12:07:59.381Z,80.80
2017-11-17T12:10:31.288Z,80.80
2017-11-17T12:13:03.157Z,80.00
2017-11-17T12:15:35.040Z,80.50
2017-11-17T12:18:06.917Z,81.00
2017-11-17T12:20:38.822Z,77.00
2017-11-17T12:23:10.694Z,76.50
2017-11-17T12:25:42.620Z,78.60
2017-11-17T12:28:14.513Z,76.30
2017-11-17T12:30:46.399Z,77.20
2017-11-17T12:33:18.289Z,75.60
2017-11-17T12:35:50.197Z,75.10
2017-11-17T12:38:22.077Z,72.20
2017-11-17T12:40:53.971Z,70.20
2017-11-17T12:43:25.847Z,71.80
2017-11-17T12:45:58.749Z,71.60
2017-11-17T12:48:30.638Z,72.10
2017-11-17T12:51:02.550Z,72.20
2017-11-17T12:53:35.193Z,70.10
2017-11-17T12:56:07.101Z,70.00
2017-11-17T12:58:39.737Z,67.80
2017-11-17T13:01:11.641Z,67.80
2017-11-17T13:03:44.288Z,68.70
2017-11-17T13:06:16.237Z,68.70
2017-11-17T13:08:48.109Z,69.50
2017-11-17T13:11:20.010Z,67.90
2017-11-17T13:13:51.873Z,67.30
2017-11-17T13:16:23.779Z,68.70
2017-11-17T13:18:55.641Z,68.40
2017-11-17T13:21:27.545Z,61.90
2017-11-17T13:24:00.177Z,58.70
2017-11-17T13:26:32.098Z,58.60
2017-11-17T13:29:03.969Z,58.40
2017-11-17T13:31:35.878Z,60.20
2017-11-17T13:34:07.752Z,61.30
2017-11-17T13:36:40.407Z,63.10
2017-11-17T13:39:12.273Z,63.10
2017-11-17T13:41:44.185Z,63.20
2017-11-17T13:44:16.057Z,64.00
2017-11-17T13:46:47.933Z,64.20
2017-11-17T13:49:19.804Z,65.50
2017-11-17T13:51:52.014Z,65.30
2017-11-17T13:54:23.898Z,65.30
2017-11-17T13:56:55.800Z,64.70
2017-11-17T13:59:28.460Z,65.90
2017-11-17T14:02:00.386Z,65.90
2017-11-17T14:04:32.260Z,64.10
2017-11-17T14:07:04.166Z,64.60
2017-11-17T14:09:36.041Z,65.00
2017-11-17T14:12:08.697Z,64.70
2017-11-17T14:14:40.599Z,64.70
2017-11-17T14:17:12.505Z,65.90
2017-11-17T14:19:44.372Z,66.20
2017-11-17T14:22:16.260Z,65.80
2017-11-17T14:24:48.915Z,65.50
2017-11-17T14:27:20.815Z,65.50
2017-11-17T14:29:53.441Z,65.50
2017-11-17T14:32:25.346Z,65.50
2017-11-17T14:34:57.996Z,66.80
2017-11-17T14:37:29.927Z,66.70
2017-11-17T14:40:01.780Z,67.10
2017-11-17T14:42:33.672Z,67.10
2017-11-17T14:45:05.537Z,68.10
2017-11-17T14:47:37.440Z,67.30
2017-11-17T14:50:09.312Z,68.30
2017-11-17T14:52:41.213Z,69.10
2017-11-17T14:55:13.088Z,69.60
2017-11-17T14:57:45.760Z,68.50
2017-11-17T15:00:17.625Z,67.80
2017-11-17T15:02:49.509Z,68.70
2017-11-17T15:05:21.380Z,66.80
2017-11-17T15:07:53.294Z,66.30
2017-11-17T15:10:25.158Z,67.00
2017-11-17T15:12:57.060Z,67.20
2017-11-17T15:15:28.951Z,67.90
2017-11-17T15:18:00.850Z,68.20
2017-11-17T15:20:32.726Z,68.40
2017-11-17T15:23:05.392Z,69.10
2017-11-17T15:25:38.033Z,69.30
2017-11-17T15:28:09.935Z,69.30
2017-11-17T15:30:42.569Z,70.60
2017-11-17T15:33:14.473Z,70.60
2017-11-17T15:35:47.113Z,72.50
2017-11-17T15:38:19.765Z,72.40
2017-11-17T15:40:51.647Z,72.80
2017-11-17T15:43:23.544Z,72.80
2017-11-17T15:45:56.184Z,73.70
2017-11-17T15:48:28.089Z,73.60
2017-11-17T15:51:00.729Z,74.50
2017-11-17T15:53:32.609Z,74.40
2017-11-17T15:56:04.481Z,75.00
2017-11-17T15:58:37.194Z,75.40
2017-11-17T16:01:09.348Z,75.30
2017-11-17T16:03:41.252Z,75.90
2017-11-17T16:06:13.121Z,76.30
2017-11-17T16:08:45.025Z,76.80
2017-11-17T16:11:16.896Z,77.10
2017-11-17T16:13:48.769Z,77.40
2017-11-17T16:16:20.636Z,77.70
2017-11-17T16:18:52.549Z,78.20
2017-11-17T16:21:25.188Z,78.80
2017-11-17T16:23:57.074Z,78.80
2017-11-17T16:26:28.949Z,79.00
2017-11-17T16:29:01.606Z,79.00
2017-11-17T16:31:33.484Z,78.80
2017-11-17T16:34:06.144Z,77.70
2017-11-17T16:36:38.026Z,77.70
2017-11-17T16:39:10.697Z,78.70
2017-11-17T16:41:43.328Z,79.30
2017-11-17T16:44:15.232Z,78.60
2017-11-17T16:46:47.100Z,79.50
2017-11-17T16:49:19.778Z,80.30
2017-11-17T16:51:52.404Z,80.20
2017-11-17T16:54:24.304Z,80.10
2017-11-17T16:56:56.181Z,80.10
2017-11-17T16:59:28.901Z,80.50
2017-11-17T17:02:00.785Z,80.50
2017-11-17T17:04:32.689Z,80.70
2017-11-17T17:07:05.333Z,80.80
2017-11-17T17:09:37.233Z,80.80
2017-11-17T17:12:09.872Z,82.10
2017-11-17T17:14:41.768Z,82.10
2017-11-17T17:17:13.692Z,81.80
2017-11-17T17:19:45.598Z,81.30
2017-11-17T17:22:17.477Z,81.60
2017-11-17T17:24:49.381Z,82.70
2017-11-17T17:27:21.244Z,82.70
2017-11-17T17:29:53.159Z,83.00
2017-11-17T17:32:25.077Z,82.60
2017-11-17T17:34:57.724Z,83.70
2017-11-17T17:37:29.593Z,83.60
2017-11-17T17:40:01.482Z,83.70
2017-11-17T17:42:34.118Z,83.50
2017-11-17T17:45:06.005Z,83.50
2017-11-17T17:47:37.875Z,83.40
2017-11-17T17:50:09.794Z,84.50
2017-11-17T17:52:41.666Z,83.90
2017-11-17T17:55:13.566Z,84.30
2017-11-17T17:57:46.207Z,85.10
2017-11-17T18:00:18.107Z,85.00
2017-11-17T18:02:49.979Z,85.20
2017-11-17T18:05:21.888Z,85.80
2017-11-17T18:07:53.761Z,86.10
2017-11-17T18:10:25.672Z,86.20
2017-11-17T18:12:57.552Z,86.30
2017-11-17T18:15:29.440Z,85.90
2017-11-17T18:18:01.310Z,86.20
2017-11-17T18:20:33.981Z,86.60
2017-11-17T18:23:05.850Z,86.50
2017-11-17T18:25:38.522Z,86.80
2017-11-17T18:28:10.435Z,86.70
2017-11-17T18:30:43.074Z,87.30
2017-11-17T18:33:15.713Z,87.20
2017-11-17T18:35:47.600Z,87.10
2017-11-17T18:38:20.255Z,88.10
2017-11-17T18:40:52.140Z,87.50
2017-11-17T18:43:24.009Z,87.50
2017-11-17T18:45:56.681Z,88.10
2017-11-17T18:48:28.587Z,88.00
2017-11-17T18:51:01.230Z,88.30
2017-11-17T18:53:33.873Z,87.30
2017-11-17T18:56:05.784Z,87.30
2017-11-17T18:58:37.656Z,88.00
2017-11-17T19:01:09.570Z,87.50
2017-11-17T19:03:41.426Z,87.30
2017-11-17T19:06:13.309Z,87.20
2017-11-17T19:08:45.944Z,86.50
2017-11-17T19:11:18.618Z,86.20
2017-11-17T19:13:50.527Z,86.30
2017-11-17T19:16:22.396Z,86.00
2017-11-17T19:18:56.327Z,86.50
2017-11-17T19:21:28.252Z,85.80
2017-11-17T19:24:00.888Z,86.40
2017-11-17T19:26:32.785Z,86.50
2017-11-17T19:29:05.421Z,85.70
2017-11-17T19:31:37.331Z,85.70
2017-11-17T19:34:09.957Z,85.70
2017-11-17T19:36:41.873Z,85.70
2017-11-17T19:39:14.514Z,86.50
2017-11-17T19:41:46.426Z,86.50
2017-11-17T19:44:18.297Z,86.20
2017-11-17T19:46:50.195Z,86.20
2017-11-17T19:49:22.082Z,86.10
2017-11-17T19:51:54.758Z,86.40
2017-11-17T19:54:26.629Z,86.10
2017-11-17T19:56:59.284Z,86.10
2017-11-17T19:59:31.164Z,86.10
2017-11-17T20:02:03.838Z,86.80
2017-11-17T20:04:36.636Z,87.20
2017-11-17T20:07:08.546Z,87.70
2017-11-17T20:09:40.416Z,87.30
2017-11-17T20:12:12.320Z,87.30
2017-11-17T20:14:44.212Z,87.30
2017-11-17T20:17:16.121Z,87.90
2017-11-17T20:19:48.762Z,88.30
2017-11-17T20:22:20.677Z,88.30
2017-11-17T20:24:52.552Z,88.10
2017-11-17T20:27:24.449Z,87.70
2017-11-17T20:29:56.320Z,87.80
2017-11-17T20:32:28.216Z,87.60
2017-11-17T20:35:00.137Z,87.70
2017-11-17T20:37:32.049Z,87.40
2017-11-17T20:40:03.930Z,87.50
2017-11-17T20:42:35.830Z,87.50
2017-11-17T20:45:07.694Z,87.40
2017-11-17T20:47:39.610Z,87.70
2017-11-17T20:50:11.476Z,87.80
2017-11-17T20:52:43.372Z,88.00
2017-11-17T20:55:15.237Z,87.40
2017-11-17T20:57:47.893Z,88.80
2017-11-17T21:00:19.772Z,88.10
2017-11-17T21:02:51.707Z,87.80
2017-11-17T21:05:23.588Z,87.80
2017-11-17T21:07:55.456Z,87.80
2017-11-17T21:10:28.097Z,87.80
2017-11-17T21:13:00.002Z,87.80
2017-11-17T21:15:32.646Z,88.00
2017-11-17T21:18:04.535Z,88.00
2017-11-17T21:20:36.400Z,88.50
2017-11-17T21:23:09.073Z,88.20
2017-11-17T21:25:41.721Z,88.40
2017-11-17T21:28:13.757Z,88.40
2017-11-17T21:30:45.638Z,89.80
2017-11-17T21:33:17.539Z,89.30
2017-11-17T21:35:50.202Z,89.80
2017-11-17T21:38:22.101Z,89.80
2017-11-17T21:40:53.970Z,90.10
2017-11-17T21:43:25.886Z,90.40
2017-11-17T21:45:57.752Z,90.30
2017-11-17T21:48:30.445Z,90.10
2017-11-17T21:51:03.076Z,90.20
2017-11-17T21:53:34.952Z,90.10
2017-11-17T21:56:06.830Z,90.10
2017-11-17T21:58:38.737Z,90.20
2017-11-17T22:01:10.609Z,90.60
2017-11-17T22:03:42.512Z,90.30
